sensor_id;sensor_type;location;lat;lon;timestamp;P1;durP1;ratioP1;P2;durP2;ratioP2
8293;SDS011;4185;41.506;24.938;2023-11-19T00:02:21;1.60;;;1.43;;
8293;SDS011;4185;41.506;24.938;2023-11-19T00:04:47;1.93;;;1.83;;
8293;SDS011;4185;41.506;24.938;2023-11-19T00:07:14;7.63;;;1.60;;
8293;SDS011;4185;41.506;24.938;2023-11-19T00:09:41;1.73;;;1.63;;
8293;SDS011;4185;41.506;24.938;2023-11-19T00:12:08;1.67;;;1.57;;
8293;SDS011;4185;41.506;24.938;2023-11-19T00:14:35;2.17;;;2.07;;
8293;SDS011;4185;41.506;24.938;2023-11-19T00:17:02;1.80;;;1.70;;
8293;SDS011;4185;41.506;24.938;2023-11-19T00:19:31;1.73;;;1.63;;
8293;SDS011;4185;41.506;24.938;2023-11-19T00:21:58;1.90;;;1.80;;
8293;SDS011;4185;41.506;24.938;2023-11-19T00:24:28;1.70;;;1.60;;
8293;SDS011;4185;41.506;24.938;2023-11-19T00:26:55;2.10;;;1.83;;
8293;SDS011;4185;41.506;24.938;2023-11-19T00:29:22;1.80;;;1.70;;
8293;SDS011;4185;41.506;24.938;2023-11-19T00:31:50;1.60;;;1.50;;
8293;SDS011;4185;41.506;24.938;2023-11-19T00:34:16;2.13;;;1.93;;
8293;SDS011;4185;41.506;24.938;2023-11-19T00:36:47;1.50;;;1.40;;
8293;SDS011;4185;41.506;24.938;2023-11-19T00:39:14;1.73;;;1.63;;
8293;SDS011;4185;41.506;24.938;2023-11-19T00:41:43;1.60;;;1.60;;
8293;SDS011;4185;41.506;24.938;2023-11-19T00:44:11;1.83;;;1.73;;
8293;SDS011;4185;41.506;24.938;2023-11-19T00:46:38;2.10;;;1.90;;
8293;SDS011;4185;41.506;24.938;2023-11-19T00:49:04;1.47;;;1.40;;
8293;SDS011;4185;41.506;24.938;2023-11-19T00:51:31;1.50;;;1.40;;
8293;SDS011;4185;41.506;24.938;2023-11-19T00:54:00;1.50;;;1.50;;
8293;SDS011;4185;41.506;24.938;2023-11-19T00:56:27;1.53;;;1.43;;
8293;SDS011;4185;41.506;24.938;2023-11-19T00:58:54;1.80;;;1.70;;
8293;SDS011;4185;41.506;24.938;2023-11-19T01:01:21;2.00;;;1.90;;
8293;SDS011;4185;41.506;24.938;2023-11-19T01:03:48;1.70;;;1.57;;
8293;SDS011;4185;41.506;24.938;2023-11-19T01:06:15;1.63;;;1.53;;
8293;SDS011;4185;41.506;24.938;2023-11-19T01:08:52;1.53;;;1.50;;
8293;SDS011;4185;41.506;24.938;2023-11-19T01:11:21;1.60;;;1.50;;
8293;SDS011;4185;41.506;24.938;2023-11-19T01:13:48;1.67;;;1.60;;
8293;SDS011;4185;41.506;24.938;2023-11-19T01:16:15;1.53;;;1.43;;
8293;SDS011;4185;41.506;24.938;2023-11-19T01:18:43;1.70;;;1.60;;
8293;SDS011;4185;41.506;24.938;2023-11-19T01:21:10;1.40;;;1.40;;
8293;SDS011;4185;41.506;24.938;2023-11-19T01:23:39;1.40;;;1.40;;
8293;SDS011;4185;41.506;24.938;2023-11-19T01:26:08;1.50;;;1.40;;
8293;SDS011;4185;41.506;24.938;2023-11-19T01:28:36;1.70;;;1.60;;
8293;SDS011;4185;41.506;24.938;2023-11-19T01:31:04;1.43;;;1.43;;
8293;SDS011;4185;41.506;24.938;2023-11-19T01:33:33;1.67;;;1.60;;
8293;SDS011;4185;41.506;24.938;2023-11-19T01:36:01;1.77;;;1.67;;
8293;SDS011;4185;41.506;24.938;2023-11-19T01:38:29;1.70;;;1.60;;
8293;SDS011;4185;41.506;24.938;2023-11-19T01:40:56;1.97;;;1.87;;
8293;SDS011;4185;41.506;24.938;2023-11-19T01:43:33;1.43;;;1.40;;
8293;SDS011;4185;41.506;24.938;2023-11-19T01:46:02;2.13;;;1.63;;
8293;SDS011;4185;41.506;24.938;2023-11-19T01:48:30;1.50;;;1.50;;
8293;SDS011;4185;41.506;24.938;2023-11-19T01:50:59;1.60;;;1.57;;
8293;SDS011;4185;41.506;24.938;2023-11-19T01:53:27;1.53;;;1.40;;
8293;SDS011;4185;41.506;24.938;2023-11-19T01:55:55;1.47;;;1.37;;
8293;SDS011;4185;41.506;24.938;2023-11-19T01:58:23;1.30;;;1.30;;
8293;SDS011;4185;41.506;24.938;2023-11-19T02:00:50;1.30;;;1.30;;
8293;SDS011;4185;41.506;24.938;2023-11-19T02:03:18;1.63;;;1.53;;
8293;SDS011;4185;41.506;24.938;2023-11-19T02:05:46;1.83;;;1.70;;
8293;SDS011;4185;41.506;24.938;2023-11-19T02:08:16;1.60;;;1.50;;
8293;SDS011;4185;41.506;24.938;2023-11-19T02:10:43;1.50;;;1.40;;
8293;SDS011;4185;41.506;24.938;2023-11-19T02:13:09;1.90;;;1.80;;
8293;SDS011;4185;41.506;24.938;2023-11-19T02:15:38;1.27;;;1.27;;
8293;SDS011;4185;41.506;24.938;2023-11-19T02:18:20;1.70;;;1.60;;
8293;SDS011;4185;41.506;24.938;2023-11-19T02:20:48;2.17;;;2.07;;
8293;SDS011;4185;41.506;24.938;2023-11-19T02:23:15;1.67;;;1.57;;
8293;SDS011;4185;41.506;24.938;2023-11-19T02:25:42;1.67;;;1.57;;
8293;SDS011;4185;41.506;24.938;2023-11-19T02:28:16;1.57;;;1.57;;
8293;SDS011;4185;41.506;24.938;2023-11-19T02:30:43;1.67;;;1.57;;
8293;SDS011;4185;41.506;24.938;2023-11-19T02:33:10;1.50;;;1.40;;
8293;SDS011;4185;41.506;24.938;2023-11-19T02:35:38;1.80;;;1.70;;
8293;SDS011;4185;41.506;24.938;2023-11-19T02:38:05;2.00;;;1.60;;
8293;SDS011;4185;41.506;24.938;2023-11-19T02:40:33;1.67;;;1.57;;
8293;SDS011;4185;41.506;24.938;2023-11-19T02:43:00;2.67;;;1.87;;
8293;SDS011;4185;41.506;24.938;2023-11-19T02:45:31;1.77;;;1.67;;
8293;SDS011;4185;41.506;24.938;2023-11-19T02:47:58;1.87;;;1.77;;
8293;SDS011;4185;41.506;24.938;2023-11-19T02:50:26;1.67;;;1.60;;
8293;SDS011;4185;41.506;24.938;2023-11-19T02:52:54;1.40;;;1.40;;
8293;SDS011;4185;41.506;24.938;2023-11-19T02:55:22;1.40;;;1.40;;
8293;SDS011;4185;41.506;24.938;2023-11-19T02:57:49;1.80;;;1.70;;
8293;SDS011;4185;41.506;24.938;2023-11-19T03:00:16;1.87;;;1.77;;
8293;SDS011;4185;41.506;24.938;2023-11-19T03:02:50;1.83;;;1.73;;
8293;SDS011;4185;41.506;24.938;2023-11-19T03:05:24;1.30;;;1.30;;
8293;SDS011;4185;41.506;24.938;2023-11-19T03:07:51;1.33;;;1.23;;
8293;SDS011;4185;41.506;24.938;2023-11-19T03:10:18;1.93;;;1.83;;
8293;SDS011;4185;41.506;24.938;2023-11-19T03:12:45;1.83;;;1.73;;
8293;SDS011;4185;41.506;24.938;2023-11-19T03:15:11;1.63;;;1.37;;
8293;SDS011;4185;41.506;24.938;2023-11-19T03:17:38;1.70;;;1.60;;
8293;SDS011;4185;41.506;24.938;2023-11-19T03:20:07;1.63;;;1.53;;
8293;SDS011;4185;41.506;24.938;2023-11-19T03:22:36;1.50;;;1.40;;
8293;SDS011;4185;41.506;24.938;2023-11-19T03:25:03;1.63;;;1.50;;
8293;SDS011;4185;41.506;24.938;2023-11-19T03:27:33;1.17;;;1.17;;
8293;SDS011;4185;41.506;24.938;2023-11-19T03:30:01;1.60;;;1.50;;
8293;SDS011;4185;41.506;24.938;2023-11-19T03:32:29;1.50;;;1.50;;
8293;SDS011;4185;41.506;24.938;2023-11-19T03:34:56;1.80;;;1.70;;
8293;SDS011;4185;41.506;24.938;2023-11-19T03:37:25;1.60;;;1.50;;
8293;SDS011;4185;41.506;24.938;2023-11-19T03:39:53;2.00;;;1.53;;
8293;SDS011;4185;41.506;24.938;2023-11-19T03:42:20;1.77;;;1.67;;
8293;SDS011;4185;41.506;24.938;2023-11-19T03:44:47;1.60;;;1.50;;
8293;SDS011;4185;41.506;24.938;2023-11-19T03:47:15;1.83;;;1.73;;
8293;SDS011;4185;41.506;24.938;2023-11-19T03:49:42;1.50;;;1.40;;
8293;SDS011;4185;41.506;24.938;2023-11-19T03:52:09;2.00;;;1.60;;
8293;SDS011;4185;41.506;24.938;2023-11-19T03:54:37;1.93;;;1.83;;
8293;SDS011;4185;41.506;24.938;2023-11-19T03:57:04;1.70;;;1.60;;
8293;SDS011;4185;41.506;24.938;2023-11-19T03:59:31;1.93;;;1.67;;
8293;SDS011;4185;41.506;24.938;2023-11-19T04:01:58;1.80;;;1.70;;
8293;SDS011;4185;41.506;24.938;2023-11-19T04:04:26;1.90;;;1.80;;
8293;SDS011;4185;41.506;24.938;2023-11-19T04:06:53;1.63;;;1.53;;
8293;SDS011;4185;41.506;24.938;2023-11-19T04:09:19;1.80;;;1.70;;
8293;SDS011;4185;41.506;24.938;2023-11-19T04:11:48;2.20;;;2.00;;
8293;SDS011;4185;41.506;24.938;2023-11-19T04:14:14;1.60;;;1.50;;
8293;SDS011;4185;41.506;24.938;2023-11-19T04:16:43;2.33;;;2.13;;
8293;SDS011;4185;41.506;24.938;2023-11-19T04:19:10;2.00;;;1.90;;
8293;SDS011;4185;41.506;24.938;2023-11-19T04:21:37;2.10;;;2.00;;
8293;SDS011;4185;41.506;24.938;2023-11-19T04:24:07;2.07;;;1.87;;
8293;SDS011;4185;41.506;24.938;2023-11-19T04:26:39;1.80;;;1.70;;
8293;SDS011;4185;41.506;24.938;2023-11-19T04:29:08;1.93;;;1.83;;
8293;SDS011;4185;41.506;24.938;2023-11-19T04:31:36;1.80;;;1.70;;
8293;SDS011;4185;41.506;24.938;2023-11-19T04:34:03;2.27;;;2.13;;
8293;SDS011;4185;41.506;24.938;2023-11-19T04:36:30;1.87;;;1.77;;
8293;SDS011;4185;41.506;24.938;2023-11-19T04:38:56;1.53;;;1.43;;
8293;SDS011;4185;41.506;24.938;2023-11-19T04:41:24;1.90;;;1.80;;
8293;SDS011;4185;41.506;24.938;2023-11-19T04:43:52;1.83;;;1.73;;
8293;SDS011;4185;41.506;24.938;2023-11-19T04:46:20;1.30;;;1.30;;
8293;SDS011;4185;41.506;24.938;2023-11-19T04:48:48;1.30;;;1.30;;
8293;SDS011;4185;41.506;24.938;2023-11-19T04:51:15;1.50;;;1.47;;
8293;SDS011;4185;41.506;24.938;2023-11-19T04:53:43;1.30;;;1.20;;
8293;SDS011;4185;41.506;24.938;2023-11-19T04:56:10;1.40;;;1.30;;
8293;SDS011;4185;41.506;24.938;2023-11-19T04:58:38;2.60;;;2.30;;
8293;SDS011;4185;41.506;24.938;2023-11-19T05:01:05;1.70;;;1.60;;
8293;SDS011;4185;41.506;24.938;2023-11-19T05:03:33;2.20;;;2.00;;
8293;SDS011;4185;41.506;24.938;2023-11-19T05:06:01;1.80;;;1.70;;
8293;SDS011;4185;41.506;24.938;2023-11-19T05:08:28;1.73;;;1.63;;
8293;SDS011;4185;41.506;24.938;2023-11-19T05:10:55;1.70;;;1.60;;
8293;SDS011;4185;41.506;24.938;2023-11-19T05:13:22;1.70;;;1.60;;
8293;SDS011;4185;41.506;24.938;2023-11-19T05:15:49;1.70;;;1.60;;
8293;SDS011;4185;41.506;24.938;2023-11-19T05:18:16;2.10;;;1.90;;
8293;SDS011;4185;41.506;24.938;2023-11-19T05:20:45;2.33;;;2.17;;
8293;SDS011;4185;41.506;24.938;2023-11-19T05:23:11;2.00;;;1.80;;
8293;SDS011;4185;41.506;24.938;2023-11-19T05:25:38;3.00;;;1.50;;
8293;SDS011;4185;41.506;24.938;2023-11-19T05:28:05;2.70;;;2.47;;
8293;SDS011;4185;41.506;24.938;2023-11-19T05:30:32;2.20;;;2.10;;
8293;SDS011;4185;41.506;24.938;2023-11-19T05:32:59;1.70;;;1.60;;
8293;SDS011;4185;41.506;24.938;2023-11-19T05:35:26;2.00;;;1.90;;
8293;SDS011;4185;41.506;24.938;2023-11-19T05:37:54;2.97;;;2.67;;
8293;SDS011;4185;41.506;24.938;2023-11-19T05:40:21;1.87;;;1.77;;
8293;SDS011;4185;41.506;24.938;2023-11-19T05:42:48;2.33;;;1.90;;
8293;SDS011;4185;41.506;24.938;2023-11-19T05:45:15;2.17;;;2.07;;
8293;SDS011;4185;41.506;24.938;2023-11-19T05:47:41;2.17;;;1.97;;
8293;SDS011;4185;41.506;24.938;2023-11-19T05:50:09;1.80;;;1.70;;
8293;SDS011;4185;41.506;24.938;2023-11-19T05:52:36;2.10;;;2.00;;
8293;SDS011;4185;41.506;24.938;2023-11-19T05:55:05;1.90;;;1.80;;
8293;SDS011;4185;41.506;24.938;2023-11-19T05:57:34;1.60;;;1.50;;
8293;SDS011;4185;41.506;24.938;2023-11-19T06:00:01;2.40;;;2.20;;
8293;SDS011;4185;41.506;24.938;2023-11-19T06:02:32;1.63;;;1.53;;
8293;SDS011;4185;41.506;24.938;2023-11-19T06:04:59;3.23;;;2.97;;
8293;SDS011;4185;41.506;24.938;2023-11-19T06:07:25;1.80;;;1.70;;
8293;SDS011;4185;41.506;24.938;2023-11-19T06:09:52;1.90;;;1.80;;
8293;SDS011;4185;41.506;24.938;2023-11-19T06:12:21;1.70;;;1.60;;
8293;SDS011;4185;41.506;24.938;2023-11-19T06:14:47;2.40;;;2.20;;
8293;SDS011;4185;41.506;24.938;2023-11-19T06:17:14;2.60;;;2.30;;
8293;SDS011;4185;41.506;24.938;2023-11-19T06:19:41;4.47;;;3.07;;
8293;SDS011;4185;41.506;24.938;2023-11-19T06:22:08;2.50;;;2.17;;
8293;SDS011;4185;41.506;24.938;2023-11-19T06:24:34;3.30;;;3.00;;
8293;SDS011;4185;41.506;24.938;2023-11-19T06:27:01;2.10;;;2.00;;
8293;SDS011;4185;41.506;24.938;2023-11-19T06:29:31;2.93;;;2.73;;
8293;SDS011;4185;41.506;24.938;2023-11-19T06:31:57;2.30;;;2.20;;
8293;SDS011;4185;41.506;24.938;2023-11-19T06:34:24;2.73;;;2.30;;
8293;SDS011;4185;41.506;24.938;2023-11-19T06:36:51;1.83;;;1.73;;
8293;SDS011;4185;41.506;24.938;2023-11-19T06:39:18;2.03;;;1.93;;
8293;SDS011;4185;41.506;24.938;2023-11-19T06:41:45;1.80;;;1.70;;
8293;SDS011;4185;41.506;24.938;2023-11-19T06:44:12;5.93;;;3.67;;
8293;SDS011;4185;41.506;24.938;2023-11-19T06:46:40;3.67;;;2.40;;
8293;SDS011;4185;41.506;24.938;2023-11-19T06:49:07;3.47;;;2.30;;
8293;SDS011;4185;41.506;24.938;2023-11-19T06:51:34;2.20;;;2.07;;
8293;SDS011;4185;41.506;24.938;2023-11-19T06:54:01;4.33;;;2.53;;
8293;SDS011;4185;41.506;24.938;2023-11-19T06:56:28;2.17;;;1.70;;
8293;SDS011;4185;41.506;24.938;2023-11-19T06:58:54;1.83;;;1.73;;
8293;SDS011;4185;41.506;24.938;2023-11-19T07:01:21;2.00;;;1.90;;
8293;SDS011;4185;41.506;24.938;2023-11-19T07:03:49;2.47;;;2.37;;
8293;SDS011;4185;41.506;24.938;2023-11-19T07:06:16;2.27;;;2.07;;
8293;SDS011;4185;41.506;24.938;2023-11-19T07:08:43;3.30;;;2.30;;
8293;SDS011;4185;41.506;24.938;2023-11-19T07:11:11;3.63;;;2.50;;
8293;SDS011;4185;41.506;24.938;2023-11-19T07:13:39;2.57;;;2.37;;
8293;SDS011;4185;41.506;24.938;2023-11-19T07:16:07;4.00;;;2.63;;
8293;SDS011;4185;41.506;24.938;2023-11-19T07:18:35;13.97;;;6.43;;
8293;SDS011;4185;41.506;24.938;2023-11-19T07:21:03;1.80;;;1.70;;
8293;SDS011;4185;41.506;24.938;2023-11-19T07:23:31;2.60;;;2.40;;
8293;SDS011;4185;41.506;24.938;2023-11-19T07:25:58;2.43;;;2.23;;
8293;SDS011;4185;41.506;24.938;2023-11-19T07:28:25;8.90;;;4.80;;
8293;SDS011;4185;41.506;24.938;2023-11-19T07:30:53;4.10;;;3.20;;
8293;SDS011;4185;41.506;24.938;2023-11-19T07:33:21;5.17;;;4.00;;
8293;SDS011;4185;41.506;24.938;2023-11-19T07:35:48;2.17;;;1.80;;
8293;SDS011;4185;41.506;24.938;2023-11-19T07:38:17;2.03;;;1.87;;
8293;SDS011;4185;41.506;24.938;2023-11-19T07:40:44;2.37;;;2.17;;
8293;SDS011;4185;41.506;24.938;2023-11-19T07:43:11;3.20;;;2.60;;
8293;SDS011;4185;41.506;24.938;2023-11-19T07:45:38;3.03;;;2.20;;
8293;SDS011;4185;41.506;24.938;2023-11-19T07:48:04;2.03;;;1.90;;
8293;SDS011;4185;41.506;24.938;2023-11-19T07:50:31;2.90;;;2.23;;
8293;SDS011;4185;41.506;24.938;2023-11-19T07:52:58;1.93;;;1.83;;
8293;SDS011;4185;41.506;24.938;2023-11-19T07:55:26;1.73;;;1.63;;
8293;SDS011;4185;41.506;24.938;2023-11-19T07:57:53;2.27;;;2.17;;
8293;SDS011;4185;41.506;24.938;2023-11-19T08:00:20;2.47;;;2.27;;
8293;SDS011;4185;41.506;24.938;2023-11-19T08:02:47;1.80;;;1.70;;
8293;SDS011;4185;41.506;24.938;2023-11-19T08:05:14;1.87;;;1.77;;
8293;SDS011;4185;41.506;24.938;2023-11-19T08:07:41;1.70;;;1.60;;
8293;SDS011;4185;41.506;24.938;2023-11-19T08:10:08;2.10;;;2.00;;
8293;SDS011;4185;41.506;24.938;2023-11-19T08:12:37;1.67;;;1.57;;
8293;SDS011;4185;41.506;24.938;2023-11-19T08:15:04;1.60;;;1.50;;
8293;SDS011;4185;41.506;24.938;2023-11-19T08:17:32;1.80;;;1.70;;
8293;SDS011;4185;41.506;24.938;2023-11-19T08:19:58;4.43;;;3.57;;
8293;SDS011;4185;41.506;24.938;2023-11-19T08:22:26;2.33;;;2.10;;
8293;SDS011;4185;41.506;24.938;2023-11-19T08:24:53;4.17;;;3.40;;
8293;SDS011;4185;41.506;24.938;2023-11-19T08:27:19;2.43;;;2.23;;
8293;SDS011;4185;41.506;24.938;2023-11-19T08:29:53;1.73;;;1.63;;
8293;SDS011;4185;41.506;24.938;2023-11-19T08:32:21;2.30;;;2.10;;
8293;SDS011;4185;41.506;24.938;2023-11-19T08:34:48;1.67;;;1.57;;
8293;SDS011;4185;41.506;24.938;2023-11-19T08:37:15;2.00;;;1.90;;
8293;SDS011;4185;41.506;24.938;2023-11-19T08:39:43;1.73;;;1.63;;
8293;SDS011;4185;41.506;24.938;2023-11-19T08:42:10;1.57;;;1.50;;
8293;SDS011;4185;41.506;24.938;2023-11-19T08:44:36;1.47;;;1.40;;
8293;SDS011;4185;41.506;24.938;2023-11-19T08:47:05;1.70;;;1.60;;
8293;SDS011;4185;41.506;24.938;2023-11-19T08:49:32;2.97;;;2.70;;
8293;SDS011;4185;41.506;24.938;2023-11-19T08:51:58;1.80;;;1.70;;
8293;SDS011;4185;41.506;24.938;2023-11-19T08:54:25;1.60;;;1.50;;
8293;SDS011;4185;41.506;24.938;2023-11-19T08:56:52;1.93;;;1.77;;
8293;SDS011;4185;41.506;24.938;2023-11-19T08:59:19;3.87;;;1.97;;
8293;SDS011;4185;41.506;24.938;2023-11-19T09:01:46;4.77;;;3.20;;
8293;SDS011;4185;41.506;24.938;2023-11-19T09:04:14;2.43;;;2.23;;
8293;SDS011;4185;41.506;24.938;2023-11-19T09:06:41;5.20;;;2.57;;
8293;SDS011;4185;41.506;24.938;2023-11-19T09:09:09;1.70;;;1.60;;
8293;SDS011;4185;41.506;24.938;2023-11-19T09:11:35;1.90;;;1.80;;
8293;SDS011;4185;41.506;24.938;2023-11-19T09:14:03;2.33;;;2.10;;
8293;SDS011;4185;41.506;24.938;2023-11-19T09:16:30;1.97;;;1.70;;
8293;SDS011;4185;41.506;24.938;2023-11-19T09:18:57;2.30;;;2.03;;
8293;SDS011;4185;41.506;24.938;2023-11-19T09:21:25;1.93;;;1.83;;
8293;SDS011;4185;41.506;24.938;2023-11-19T09:23:54;1.20;;;1.20;;
8293;SDS011;4185;41.506;24.938;2023-11-19T09:26:21;1.73;;;1.43;;
8293;SDS011;4185;41.506;24.938;2023-11-19T09:28:48;1.50;;;1.40;;
8293;SDS011;4185;41.506;24.938;2023-11-19T09:31:14;1.87;;;1.77;;
8293;SDS011;4185;41.506;24.938;2023-11-19T09:33:41;1.63;;;1.53;;
8293;SDS011;4185;41.506;24.938;2023-11-19T09:36:08;1.60;;;1.50;;
8293;SDS011;4185;41.506;24.938;2023-11-19T09:38:37;1.90;;;1.80;;
8293;SDS011;4185;41.506;24.938;2023-11-19T09:41:04;1.80;;;1.70;;
8293;SDS011;4185;41.506;24.938;2023-11-19T09:43:34;2.70;;;2.00;;
8293;SDS011;4185;41.506;24.938;2023-11-19T09:46:02;2.50;;;2.30;;
8293;SDS011;4185;41.506;24.938;2023-11-19T09:48:32;1.50;;;1.40;;
8293;SDS011;4185;41.506;24.938;2023-11-19T09:51:00;1.13;;;1.13;;
8293;SDS011;4185;41.506;24.938;2023-11-19T09:53:27;1.40;;;1.30;;
8293;SDS011;4185;41.506;24.938;2023-11-19T09:55:56;1.50;;;1.40;;
8293;SDS011;4185;41.506;24.938;2023-11-19T09:58:23;1.57;;;1.47;;
8293;SDS011;4185;41.506;24.938;2023-11-19T10:00:49;3.40;;;2.27;;
8293;SDS011;4185;41.506;24.938;2023-11-19T10:03:18;1.60;;;1.50;;
8293;SDS011;4185;41.506;24.938;2023-11-19T10:05:45;2.30;;;2.00;;
8293;SDS011;4185;41.506;24.938;2023-11-19T10:08:12;8.77;;;3.63;;
8293;SDS011;4185;41.506;24.938;2023-11-19T10:10:39;1.50;;;1.40;;
8293;SDS011;4185;41.506;24.938;2023-11-19T10:13:07;1.60;;;1.50;;
8293;SDS011;4185;41.506;24.938;2023-11-19T10:15:35;1.50;;;1.37;;
8293;SDS011;4185;41.506;24.938;2023-11-19T10:18:03;1.40;;;1.30;;
8293;SDS011;4185;41.506;24.938;2023-11-19T10:20:34;1.40;;;1.33;;
8293;SDS011;4185;41.506;24.938;2023-11-19T10:23:02;2.13;;;1.60;;
8293;SDS011;4185;41.506;24.938;2023-11-19T10:25:29;1.60;;;1.50;;
8293;SDS011;4185;41.506;24.938;2023-11-19T10:27:56;2.20;;;1.40;;
8293;SDS011;4185;41.506;24.938;2023-11-19T10:30:25;3.00;;;2.33;;
8293;SDS011;4185;41.506;24.938;2023-11-19T10:33:03;1.50;;;1.40;;
8293;SDS011;4185;41.506;24.938;2023-11-19T10:35:32;50.67;;;13.80;;
8293;SDS011;4185;41.506;24.938;2023-11-19T10:37:59;31.70;;;15.57;;
8293;SDS011;4185;41.506;24.938;2023-11-19T10:40:39;21.13;;;10.23;;
8293;SDS011;4185;41.506;24.938;2023-11-19T10:43:06;2.63;;;1.73;;
8293;SDS011;4185;41.506;24.938;2023-11-19T10:45:35;1.70;;;1.60;;
8293;SDS011;4185;41.506;24.938;2023-11-19T10:48:02;1.10;;;1.00;;
8293;SDS011;4185;41.506;24.938;2023-11-19T10:50:32;1.37;;;1.27;;
8293;SDS011;4185;41.506;24.938;2023-11-19T10:52:59;1.50;;;1.40;;
8293;SDS011;4185;41.506;24.938;2023-11-19T10:55:27;1.50;;;1.40;;
8293;SDS011;4185;41.506;24.938;2023-11-19T10:57:58;1.53;;;1.43;;
8293;SDS011;4185;41.506;24.938;2023-11-19T11:00:28;2.63;;;2.13;;
8293;SDS011;4185;41.506;24.938;2023-11-19T11:03:01;9.93;;;5.17;;
8293;SDS011;4185;41.506;24.938;2023-11-19T11:05:29;1.50;;;1.40;;
8293;SDS011;4185;41.506;24.938;2023-11-19T11:08:00;0.90;;;0.90;;
8293;SDS011;4185;41.506;24.938;2023-11-19T11:10:27;1.30;;;1.20;;
8293;SDS011;4185;41.506;24.938;2023-11-19T11:12:59;1.40;;;1.30;;
8293;SDS011;4185;41.506;24.938;2023-11-19T11:15:29;1.50;;;1.40;;
8293;SDS011;4185;41.506;24.938;2023-11-19T11:17:59;1.40;;;1.30;;
8293;SDS011;4185;41.506;24.938;2023-11-19T11:20:28;1.30;;;1.17;;
8293;SDS011;4185;41.506;24.938;2023-11-19T11:23:04;1.40;;;1.30;;
8293;SDS011;4185;41.506;24.938;2023-11-19T11:25:54;1.70;;;1.60;;
8293;SDS011;4185;41.506;24.938;2023-11-19T11:28:32;2.23;;;1.73;;
8293;SDS011;4185;41.506;24.938;2023-11-19T11:31:09;1.47;;;1.37;;
8293;SDS011;4185;41.506;24.938;2023-11-19T11:33:58;1.60;;;1.20;;
8293;SDS011;4185;41.506;24.938;2023-11-19T11:36:33;3.73;;;2.87;;
8293;SDS011;4185;41.506;24.938;2023-11-19T11:39:09;4.73;;;4.23;;
8293;SDS011;4185;41.506;24.938;2023-11-19T11:41:36;4.17;;;3.10;;
8293;SDS011;4185;41.506;24.938;2023-11-19T11:44:03;1.83;;;1.60;;
8293;SDS011;4185;41.506;24.938;2023-11-19T11:49:29;1.30;;;1.20;;
8293;SDS011;4185;41.506;24.938;2023-11-19T11:52:01;1.70;;;1.60;;
8293;SDS011;4185;41.506;24.938;2023-11-19T11:54:29;1.20;;;1.10;;
8293;SDS011;4185;41.506;24.938;2023-11-19T11:57:10;4.10;;;2.40;;
8293;SDS011;4185;41.506;24.938;2023-11-19T11:59:47;1.37;;;1.27;;
8293;SDS011;4185;41.506;24.938;2023-11-19T12:02:15;2.03;;;1.10;;
8293;SDS011;4185;41.506;24.938;2023-11-19T12:04:47;6.23;;;3.93;;
8293;SDS011;4185;41.506;24.938;2023-11-19T12:07:16;1.87;;;1.67;;
8293;SDS011;4185;41.506;24.938;2023-11-19T12:09:47;2.40;;;2.20;;
8293;SDS011;4185;41.506;24.938;2023-11-19T12:12:17;1.87;;;1.77;;
8293;SDS011;4185;41.506;24.938;2023-11-19T12:15:01;1.87;;;1.67;;
8293;SDS011;4185;41.506;24.938;2023-11-19T12:17:37;2.40;;;1.73;;
8293;SDS011;4185;41.506;24.938;2023-11-19T12:20:16;1.83;;;1.60;;
8293;SDS011;4185;41.506;24.938;2023-11-19T12:22:43;1.83;;;1.73;;
8293;SDS011;4185;41.506;24.938;2023-11-19T12:25:14;3.87;;;2.80;;
8293;SDS011;4185;41.506;24.938;2023-11-19T12:27:43;3.83;;;2.80;;
8293;SDS011;4185;41.506;24.938;2023-11-19T12:30:11;7.63;;;5.43;;
8293;SDS011;4185;41.506;24.938;2023-11-19T12:32:39;1.57;;;1.47;;
8293;SDS011;4185;41.506;24.938;2023-11-19T12:35:07;1.10;;;1.10;;
8293;SDS011;4185;41.506;24.938;2023-11-19T12:37:41;1.57;;;1.40;;
8293;SDS011;4185;41.506;24.938;2023-11-19T12:40:12;1.40;;;1.30;;
8293;SDS011;4185;41.506;24.938;2023-11-19T12:42:42;4.37;;;2.77;;
8293;SDS011;4185;41.506;24.938;2023-11-19T12:45:09;2.00;;;1.80;;
8293;SDS011;4185;41.506;24.938;2023-11-19T12:47:37;2.20;;;2.00;;
8293;SDS011;4185;41.506;24.938;2023-11-19T12:50:04;1.63;;;1.53;;
8293;SDS011;4185;41.506;24.938;2023-11-19T12:52:33;1.63;;;1.53;;
8293;SDS011;4185;41.506;24.938;2023-11-19T12:55:01;3.40;;;3.10;;
8293;SDS011;4185;41.506;24.938;2023-11-19T12:57:37;1.30;;;1.20;;
8293;SDS011;4185;41.506;24.938;2023-11-19T13:00:05;2.60;;;2.40;;
8293;SDS011;4185;41.506;24.938;2023-11-19T13:02:45;8.45;;;7.05;;
8293;SDS011;4185;41.506;24.938;2023-11-19T13:05:20;3.83;;;3.42;;
8293;SDS011;4185;41.506;24.938;2023-11-19T13:07:48;4.50;;;4.10;;
8293;SDS011;4185;41.506;24.938;2023-11-19T13:10:17;2.20;;;1.98;;
8293;SDS011;4185;41.506;24.938;2023-11-19T13:12:43;1.80;;;1.70;;
8293;SDS011;4185;41.506;24.938;2023-11-19T13:15:22;10.40;;;7.85;;
8293;SDS011;4185;41.506;24.938;2023-11-19T13:17:49;7.03;;;5.93;;
8293;SDS011;4185;41.506;24.938;2023-11-19T13:20:16;6.05;;;5.03;;
8293;SDS011;4185;41.506;24.938;2023-11-19T13:22:53;4.88;;;4.03;;
8293;SDS011;4185;41.506;24.938;2023-11-19T13:25:22;1.48;;;1.30;;
8293;SDS011;4185;41.506;24.938;2023-11-19T13:27:49;3.60;;;3.08;;
8293;SDS011;4185;41.506;24.938;2023-11-19T13:30:16;5.63;;;4.50;;
8293;SDS011;4185;41.506;24.938;2023-11-19T13:32:43;53.97;;;31.77;;
8293;SDS011;4185;41.506;24.938;2023-11-19T13:35:11;21.50;;;12.40;;
8293;SDS011;4185;41.506;24.938;2023-11-19T13:37:38;26.67;;;18.10;;
8293;SDS011;4185;41.506;24.938;2023-11-19T13:40:06;50.07;;;33.63;;
8293;SDS011;4185;41.506;24.938;2023-11-19T13:42:36;13.70;;;10.67;;
8293;SDS011;4185;41.506;24.938;2023-11-19T13:45:06;36.37;;;26.30;;
8293;SDS011;4185;41.506;24.938;2023-11-19T13:47:36;98.47;;;54.60;;
8293;SDS011;4185;41.506;24.938;2023-11-19T13:50:03;36.50;;;23.27;;
8293;SDS011;4185;41.506;24.938;2023-11-19T13:52:31;28.57;;;17.33;;
8293;SDS011;4185;41.506;24.938;2023-11-19T13:54:58;42.47;;;27.17;;
8293;SDS011;4185;41.506;24.938;2023-11-19T13:57:25;22.70;;;13.80;;
8293;SDS011;4185;41.506;24.938;2023-11-19T13:59:53;74.47;;;39.97;;
8293;SDS011;4185;41.506;24.938;2023-11-19T14:02:19;59.63;;;32.50;;
8293;SDS011;4185;41.506;24.938;2023-11-19T14:04:46;14.10;;;10.47;;
8293;SDS011;4185;41.506;24.938;2023-11-19T14:07:13;15.73;;;10.10;;
8293;SDS011;4185;41.506;24.938;2023-11-19T14:09:41;16.13;;;10.57;;
8293;SDS011;4185;41.506;24.938;2023-11-19T14:12:08;10.37;;;7.87;;
8293;SDS011;4185;41.506;24.938;2023-11-19T14:14:37;15.53;;;10.73;;
8293;SDS011;4185;41.506;24.938;2023-11-19T14:17:06;16.40;;;10.93;;
8293;SDS011;4185;41.506;24.938;2023-11-19T14:19:33;13.80;;;9.67;;
8293;SDS011;4185;41.506;24.938;2023-11-19T14:22:00;11.73;;;8.47;;
8293;SDS011;4185;41.506;24.938;2023-11-19T14:24:27;12.17;;;8.70;;
8293;SDS011;4185;41.506;24.938;2023-11-19T14:26:54;11.93;;;8.37;;
8293;SDS011;4185;41.506;24.938;2023-11-19T14:29:23;12.37;;;8.33;;
8293;SDS011;4185;41.506;24.938;2023-11-19T14:31:51;12.70;;;9.33;;
8293;SDS011;4185;41.506;24.938;2023-11-19T14:34:19;10.27;;;7.63;;
8293;SDS011;4185;41.506;24.938;2023-11-19T14:36:46;11.40;;;7.50;;
8293;SDS011;4185;41.506;24.938;2023-11-19T14:39:14;14.33;;;8.97;;
8293;SDS011;4185;41.506;24.938;2023-11-19T14:41:42;14.43;;;9.80;;
8293;SDS011;4185;41.506;24.938;2023-11-19T14:44:09;15.33;;;10.87;;
8293;SDS011;4185;41.506;24.938;2023-11-19T14:46:36;18.87;;;11.17;;
8293;SDS011;4185;41.506;24.938;2023-11-19T14:49:03;24.30;;;13.37;;
8293;SDS011;4185;41.506;24.938;2023-11-19T14:51:31;20.20;;;12.73;;
8293;SDS011;4185;41.506;24.938;2023-11-19T14:53:58;36.97;;;21.73;;
8293;SDS011;4185;41.506;24.938;2023-11-19T14:56:25;12.63;;;9.03;;
8293;SDS011;4185;41.506;24.938;2023-11-19T14:58:52;18.97;;;11.63;;
8293;SDS011;4185;41.506;24.938;2023-11-19T15:01:18;82.37;;;39.13;;
8293;SDS011;4185;41.506;24.938;2023-11-19T15:03:45;140.67;;;63.17;;
8293;SDS011;4185;41.506;24.938;2023-11-19T15:06:12;117.40;;;54.80;;
8293;SDS011;4185;41.506;24.938;2023-11-19T15:08:41;53.27;;;31.53;;